Time;durP1;ratioP1;P1;durP2;ratioP2;P2;SDS_P1;SDS_P2;PMS_P1;PMS_P2;Temp;Humidity;BMP_temperature;BMP_pressure;BME280_temperature;BME280_humidity;BME280_pressure;Samples;Min_cycle;Max_cycle;Signal;HPM_P1;HPM_P2
2023/03/26 00:01:35;;;;;;;;;;;;;;;;;;5112578;28;1161;-76
2023/03/26 00:04:02;;;;;;;;;;;;;;;;;;5112197;28;1295;-76
2023/03/26 00:06:28;;;;;;;;;;;;;;;;;;5113405;28;1108;-75
2023/03/26 00:08:55;;;;;;;;;;;;;;;;;;5115713;28;1264;-75
2023/03/26 00:11:22;;;;;;;;;;;;;;;;;;5116564;27;886;-76
2023/03/26 00:13:47;;;;;;;;;;;;;;;;;;5116248;28;880;-76
2023/03/26 00:16:13;;;;;;;;;;;;;;;;;;5114641;28;1882;-76
2023/03/26 00:18:41;;;;;;;;;;;;;;;;;;5116002;28;891;-76
2023/03/26 00:21:07;;;;;;;;;;;;;;;;;;5114615;28;1273;-75
2023/03/26 00:23:34;;;;;;;;;;;;;;;;;;5114342;28;1329;-76
2023/03/26 00:25:59;;;;;;;;;;;;;;;;;;5115711;28;781;-76
2023/03/26 00:28:25;;;;;;;;;;;;;;;;;;5114061;28;896;-75
2023/03/26 00:31:00;;;;;;;;;;;;;;;;;;5113883;28;1289;-74
2023/03/26 00:33:26;;;;;;;;;;;;;;;;;;5115159;28;893;-75
2023/03/26 00:35:52;;;;;;;;;;;;;;;;;;5113825;28;1902;-75
2023/03/26 00:38:18;;;;;;;;;;;;;;;;;;5114891;28;1357;-75
2023/03/26 00:40:46;;;;;;;;;;;;;;;;;;5114991;28;844;-74
2023/03/26 00:43:17;;;;;;;;;;;;;;;;;;5114031;28;836;-75
2023/03/26 00:45:47;;;;;;;;;;;;;;;;;;5113784;28;1185;-76
2023/03/26 00:48:12;;;;;;;;;;;;;;;;;;5113602;28;1273;-77
2023/03/26 00:50:38;;;;;;;;;;;;;;;;;;5113840;28;1226;-77
2023/03/26 00:53:04;;;;;;;;;;;;;;;;;;5097051;28;1190;-77
2023/03/26 00:55:29;;;;;;;;;;;;;;;;;;5096559;28;1906;-76
2023/03/26 00:57:55;;;;;;;;;;;;;;;;;;5115073;28;804;-77
2023/03/26 01:00:26;;;;;;;;;;;;;;;;;;5113372;28;1277;-76
2023/03/26 01:02:54;;;;;;;;;;;;;;;;;;5115038;28;930;-77
2023/03/26 01:05:35;;;;;;;;;;;;;;;;;;5096741;28;1186;-76
2023/03/26 01:08:13;;;;;;;;;;;;;;;;;;5114698;28;832;-75
2023/03/26 01:10:41;;;;;;;;;;;;;;;;;;5113311;28;1185;-75
2023/03/26 01:13:07;;;;;;;;;;;;;;;;;;5115710;28;879;-75
2023/03/26 01:15:36;;;;;;;;;;;;;;;;;;5114509;28;1898;-76
2023/03/26 01:18:08;;;;;;;;;;;;;;;;;;5113344;28;1188;-77
2023/03/26 01:20:37;;;;;;;;;;;;;;;;;;5113059;28;1150;-77
2023/03/26 01:23:05;;;;;;;;;;;;;;;;;;5114135;28;1276;-76
2023/03/26 01:25:36;;;;;;;;;;;;;;;;;;5115018;28;828;-76
2023/03/26 01:28:04;;;;;;;;;;;;;;;;;;5114118;28;1274;-77
2023/03/26 01:30:30;;;;;;;;;;;;;;;;;;5113747;28;1307;-76
2023/03/26 01:33:12;;;;;;;;;;;;;;;;;;5114157;28;1308;-76
2023/03/26 01:35:37;;;;;;;;;;;;;;;;;;5114290;28;1874;-76
2023/03/26 01:38:21;;;;;;;;;;;;;;;;;;5115300;28;1265;-77
2023/03/26 01:40:53;;;;;;;;;;;;;;;;;;5114198;28;1391;-77
2023/03/26 01:43:31;;;;;;;;;;;;;;;;;;5114150;28;1328;-77
2023/03/26 01:45:59;;;;;;;;;;;;;;;;;;5115234;28;903;-76
2023/03/26 01:48:35;;;;;;;;;;;;;;;;;;5115058;28;867;-77
2023/03/26 01:51:00;;;;;;;;;;;;;;;;;;5113772;28;1046;-76
2023/03/26 01:53:25;;;;;;;;;;;;;;;;;;5113379;28;1236;-76
2023/03/26 01:55:52;;;;;;;;;;;;;;;;;;5096465;28;1953;-76
2023/03/26 01:58:25;;;;;;;;;;;;;;;;;;5114462;28;824;-76
2023/03/26 02:01:05;;;;;;;;;;;;;;;;;;5113314;28;1146;-76
2023/03/26 02:03:33;;;;;;;;;;;;;;;;;;5112486;28;1189;-77
2023/03/26 02:06:10;;;;;;;;;;;;;;;;;;5112621;28;1146;-75
2023/03/26 02:08:44;;;;;;;;;;;;;;;;;;5112401;28;1174;-76
2023/03/26 02:11:11;;;;;;;;;;;;;;;;;;5112751;28;1276;-76
2023/03/26 02:13:38;;;;;;;;;;;;;;;;;;5112151;28;1372;-78
2023/03/26 02:16:04;;;;;;;;;;;;;;;;;;5112320;28;1902;-76
2023/03/26 02:18:36;;;;;;;;;;;;;;;;;;5113559;28;1427;-75
2023/03/26 02:21:04;;;;;;;;;;;;;;;;;;5096242;28;1253;-76
2023/03/26 02:23:29;;;;;;;;;;;;;;;;;;5114407;28;872;-76
2023/03/26 02:25:54;;;;;;;;;;;;;;;;;;5113445;28;1134;-76
2023/03/26 02:28:20;;;;;;;;;;;;;;;;;;5113413;28;836;-76
2023/03/26 02:30:46;;;;;;;;;;;;;;;;;;5100851;28;1182;-76
2023/03/26 02:33:14;;;;;;;;;;;;;;;;;;5111049;28;1202;-76
2023/03/26 02:35:39;;;;;;;;;;;;;;;;;;5112758;28;1967;-76
2023/03/26 02:38:05;;;;;;;;;;;;;;;;;;5095129;28;1292;-76
2023/03/26 02:40:30;;;;;;;;;;;;;;;;;;5112355;28;891;-77
2023/03/26 02:42:57;;;;;;;;;;;;;;;;;;5112186;28;824;-76
2023/03/26 02:45:22;;;;;;;;;;;;;;;;;;5113619;28;847;-77
2023/03/26 02:47:49;;;;;;;;;;;;;;;;;;5112106;28;1127;-77
2023/03/26 02:50:15;;;;;;;;;;;;;;;;;;5113509;27;864;-77
2023/03/26 02:52:41;;;;;;;;;;;;;;;;;;5094960;28;1391;-77
2023/03/26 02:55:07;;;;;;;;;;;;;;;;;;5095236;28;1067;-76
2023/03/26 02:57:32;;;;;;;;;;;;;;;;;;5111710;28;1917;-76
2023/03/26 02:59:58;;;;;;;;;;;;;;;;;;5094845;28;1226;-76
2023/03/26 03:02:24;;;;;;;;;;;;;;;;;;5113118;28;831;-76
2023/03/26 03:04:50;;;;;;;;;;;;;;;;;;5111535;28;1202;-76
2023/03/26 03:07:16;;;;;;;;;;;;;;;;;;5111945;28;1233;-77
2023/03/26 03:09:41;;;;;;;;;;;;;;;;;;5112253;28;1189;-76
2023/03/26 03:12:06;;;;;;;;;;;;;;;;;;5112622;28;1181;-76
2023/03/26 03:14:32;;;;;;;;;;;;;;;;;;5112757;28;1197;-76
2023/03/26 03:16:57;;;;;;;;;;;;;;;;;;5112468;28;1963;-76
2023/03/26 03:19:23;;;;;;;;;;;;;;;;;;5096189;28;1203;-78
2023/03/26 03:21:48;;;;;;;;;;;;;;;;;;5112764;28;1133;-77
2023/03/26 03:24:17;;;;;;;;;;;;;;;;;;5113605;28;902;-77
2023/03/26 03:26:44;;;;;;;;;;;;;;;;;;5112455;28;1276;-77
2023/03/26 03:29:10;;;;;;;;;;;;;;;;;;5095916;28;1317;-77
2023/03/26 03:31:36;;;;;;;;;;;;;;;;;;5111614;28;1304;-77
2023/03/26 03:34:02;;;;;;;;;;;;;;;;;;5111319;28;1153;-76
2023/03/26 03:36:29;;;;;;;;;;;;;;;;;;5112609;28;1965;-77
2023/03/26 03:38:54;;;;;;;;;;;;;;;;;;5094652;28;1068;-77
2023/03/26 03:41:20;;;;;;;;;;;;;;;;;;5112725;28;1186;-77
2023/03/26 03:43:45;;;;;;;;;;;;;;;;;;5098369;28;1070;-77
2023/03/26 03:46:10;;;;;;;;;;;;;;;;;;5115136;28;908;-77
2023/03/26 03:48:39;;;;;;;;;;;;;;;;;;5115460;28;860;-76
2023/03/26 03:51:05;;;;;;;;;;;;;;;;;;5098409;28;1174;-77
2023/03/26 03:53:30;;;;;;;;;;;;;;;;;;5098250;28;1321;-77
2023/03/26 03:55:56;;;;;;;;;;;;;;;;;;5114986;28;1901;-77
2023/03/26 03:58:23;;;;;;;;;;;;;;;;;;5098450;28;1280;-75
2023/03/26 04:00:49;;;;;;;;;;;;;;;;;;5115022;28;1212;-78
2023/03/26 04:03:14;;;;;;;;;;;;;;;;;;5116713;28;887;-77
2023/03/26 04:05:39;;;;;;;;;;;;;;;;;;5114804;28;1252;-77
2023/03/26 04:08:05;;;;;;;;;;;;;;;;;;5115254;28;816;-78
2023/03/26 04:10:31;;;;;;;;;;;;;;;;;;5114959;28;1214;-77
2023/03/26 04:12:56;;;;;;;;;;;;;;;;;;5114867;28;1245;-75
2023/03/26 04:15:22;;;;;;;;;;;;;;;;;;5114357;28;1173;-76
2023/03/26 04:17:47;;;;;;;;;;;;;;;;;;5115750;28;1906;-76
2023/03/26 04:20:14;;;;;;;;;;;;;;;;;;5115922;28;864;-76
2023/03/26 04:22:41;;;;;;;;;;;;;;;;;;5114407;28;915;-76
2023/03/26 04:25:07;;;;;;;;;;;;;;;;;;5114646;28;1333;-77
2023/03/26 04:27:35;;;;;;;;;;;;;;;;;;5114456;28;1550;-77
2023/03/26 04:30:01;;;;;;;;;;;;;;;;;;5114545;28;1185;-76
2023/03/26 04:32:28;;;;;;;;;;;;;;;;;;5097507;28;1221;-76
2023/03/26 04:34:58;;;;;;;;;;;;;;;;;;5115040;28;1240;-77
2023/03/26 04:37:26;;;;;;;;;;;;;;;;;;5115388;28;1903;-77
2023/03/26 04:39:53;;;;;;;;;;;;;;;;;;5115155;28;1427;-77
2023/03/26 04:42:18;;;;;;;;;;;;;;;;;;5115526;28;1273;-77
2023/03/26 04:44:44;;;;;;;;;;;;;;;;;;5098924;28;1312;-76
2023/03/26 04:47:09;;;;;;;;;;;;;;;;;;5115816;28;1280;-76
2023/03/26 04:49:35;;;;;;;;;;;;;;;;;;5116182;28;1146;-76
2023/03/26 04:52:00;;;;;;;;;;;;;;;;;;5098293;28;1178;-77
2023/03/26 04:54:25;;;;;;;;;;;;;;;;;;5098268;28;1284;-77
2023/03/26 04:56:57;;;;;;;;;;;;;;;;;;5098752;28;1975;-77
2023/03/26 04:59:25;;;;;;;;;;;;;;;;;;5115465;28;1185;-77
2023/03/26 05:01:53;;;;;;;;;;;;;;;;;;5115708;28;1571;-77
2023/03/26 05:04:18;;;;;;;;;;;;;;;;;;5098382;28;1300;-77
2023/03/26 05:06:44;;;;;;;;;;;;;;;;;;5114917;28;1367;-77
2023/03/26 05:09:10;;;;;;;;;;;;;;;;;;5114706;28;1158;-77
2023/03/26 05:11:37;;;;;;;;;;;;;;;;;;5123555;28;954;-77
2023/03/26 05:14:02;;;;;;;;;;;;;;;;;;5122327;28;1289;-77
2023/03/26 05:16:27;;;;;;;;;;;;;;;;;;5117987;28;1968;-77
2023/03/26 05:18:53;;;;;;;;;;;;;;;;;;5097498;28;1377;-77
2023/03/26 05:21:18;;;;;;;;;;;;;;;;;;5114262;28;1352;-77
2023/03/26 05:23:44;;;;;;;;;;;;;;;;;;5114425;28;1184;-77
2023/03/26 05:26:09;;;;;;;;;;;;;;;;;;5113793;28;1288;-77
2023/03/26 05:28:35;;;;;;;;;;;;;;;;;;5114166;28;1219;-76
2023/03/26 05:31:01;;;;;;;;;;;;;;;;;;5113556;28;880;-76
2023/03/26 05:33:27;;;;;;;;;;;;;;;;;;5113297;28;1165;-76
2023/03/26 05:36:01;;;;;;;;;;;;;;;;;;5113002;28;1913;-76
2023/03/26 05:38:28;;;;;;;;;;;;;;;;;;5113547;28;1475;-76
2023/03/26 05:41:00;;;;;;;;;;;;;;;;;;5113509;28;1411;-76
2023/03/26 05:43:26;;;;;;;;;;;;;;;;;;5114546;28;894;-76
2023/03/26 05:45:55;;;;;;;;;;;;;;;;;;5113591;28;1177;-76
2023/03/26 05:48:21;;;;;;;;;;;;;;;;;;5114729;28;847;-77
2023/03/26 05:50:50;;;;;;;;;;;;;;;;;;5113977;28;1355;-77
2023/03/26 05:53:15;;;;;;;;;;;;;;;;;;5115201;28;848;-77
2023/03/26 05:55:44;;;;;;;;;;;;;;;;;;5113978;28;1909;-77
2023/03/26 05:58:09;;;;;;;;;;;;;;;;;;5113708;28;1351;-78
2023/03/26 06:00:37;;;;;;;;;;;;;;;;;;5113586;28;1421;-78
2023/03/26 06:03:03;;;;;;;;;;;;;;;;;;5096940;28;1266;-76
2023/03/26 06:05:31;;;;;;;;;;;;;;;;;;5115302;28;824;-76
2023/03/26 06:07:56;;;;;;;;;;;;;;;;;;5114967;28;840;-76
2023/03/26 06:10:22;;;;;;;;;;;;;;;;;;5115274;28;864;-77
2023/03/26 06:12:48;;;;;;;;;;;;;;;;;;5113680;28;1323;-78
2023/03/26 06:15:14;;;;;;;;;;;;;;;;;;5112915;28;1182;-78
2023/03/26 06:17:39;;;;;;;;;;;;;;;;;;5105879;28;1906;-78
2023/03/26 06:20:06;;;;;;;;;;;;;;;;;;5097637;28;1229;-77
2023/03/26 06:22:32;;;;;;;;;;;;;;;;;;5096481;28;1356;-77
2023/03/26 06:24:57;;;;;;;;;;;;;;;;;;5096084;28;1075;-75
2023/03/26 06:27:22;;;;;;;;;;;;;;;;;;5112848;28;1284;-74
2023/03/26 06:29:47;;;;;;;;;;;;;;;;;;5113233;28;891;-75
2023/03/26 06:32:13;;;;;;;;;;;;;;;;;;5112932;28;807;-74
2023/03/26 06:34:38;;;;;;;;;;;;;;;;;;5096473;28;1365;-75
2023/03/26 06:37:04;;;;;;;;;;;;;;;;;;5114080;28;1959;-74
2023/03/26 06:39:29;;;;;;;;;;;;;;;;;;5113188;28;1199;-75
2023/03/26 06:41:54;;;;;;;;;;;;;;;;;;5115111;28;841;-75
2023/03/26 06:44:20;;;;;;;;;;;;;;;;;;5096110;28;1328;-75
2023/03/26 06:46:45;;;;;;;;;;;;;;;;;;5112782;28;888;-75
2023/03/26 06:49:10;;;;;;;;;;;;;;;;;;5112431;28;1201;-75
2023/03/26 06:51:39;;;;;;;;;;;;;;;;;;5113309;28;912;-75
2023/03/26 06:54:04;;;;;;;;;;;;;;;;;;5112687;28;887;-74
2023/03/26 06:56:30;;;;;;;;;;;;;;;;;;5095862;28;1918;-75
2023/03/26 06:58:55;;;;;;;;;;;;;;;;;;5114159;28;868;-75
2023/03/26 07:01:20;;;;;;;;;;;;;;;;;;5110021;28;1258;-75
2023/03/26 07:03:46;;;;;;;;;;;;;;;;;;5094742;28;1352;-75
2023/03/26 07:06:11;;;;;;;;;;;;;;;;;;5094987;28;1300;-74
2023/03/26 07:08:37;;;;;;;;;;;;;;;;;;5112656;28;1181;-75
2023/03/26 07:11:02;;;;;;;;;;;;;;;;;;5095179;28;1196;-75
2023/03/26 07:13:27;;;;;;;;;;;;;;;;;;5093871;28;1327;-75
2023/03/26 07:15:52;;;;;;;;;;;;;;;;;;5113064;28;1906;-75
2023/03/26 07:18:18;;;;;;;;;;;;;;;;;;5115816;28;1218;-74
2023/03/26 07:20:44;;;;;;;;;;;;;;;;;;5117607;28;1050;-75
2023/03/26 07:23:10;;;;;;;;;;;;;;;;;;5117958;28;1235;-74
2023/03/26 07:25:35;;;;;;;;;;;;;;;;;;5117808;28;824;-74
2023/03/26 07:28:04;;;;;;;;;;;;;;;;;;5119327;28;1026;-74
2023/03/26 07:30:35;;;;;;;;;;;;;;;;;;5119157;28;919;-74
2023/03/26 07:33:05;;;;;;;;;;;;;;;;;;5117441;28;1248;-74
2023/03/26 07:35:52;;;;;;;;;;;;;;;;;;5117357;28;1237;-74
2023/03/26 07:38:17;;;;;;;;;;;;;;;;;;5117616;28;1305;-75
2023/03/26 07:40:48;;;;;;;;;;;;;;;;;;5120770;28;1260;-74
2023/03/26 07:43:21;;;;;;;;;;;;;;;;;;5124926;28;832;-74
2023/03/26 07:45:46;;;;;;;;;;;;;;;;;;5124728;28;1335;-74
2023/03/26 07:48:26;;;;;;;;;;;;;;;;;;5125066;28;1194;-74
2023/03/26 07:50:52;;;;;;;;;;;;;;;;;;5123137;28;844;-74
2023/03/26 07:53:17;;;;;;;;;;;;;;;;;;5123969;28;843;-75
2023/03/26 07:55:51;;;;;;;;;;;;;;;;;;5123294;28;1897;-75
2023/03/26 07:58:20;;;;;;;;;;;;;;;;;;5122847;28;1079;-74
2023/03/26 08:00:49;;;;;;;;;;;;;;;;;;5124363;28;1229;-74
2023/03/26 08:03:20;;;;;;;;;;;;;;;;;;5126027;27;939;-74
2023/03/26 08:05:49;;;;;;;;;;;;;;;;;;5122999;28;1245;-74
2023/03/26 08:08:15;;;;;;;;;;;;;;;;;;5124399;28;873;-74
2023/03/26 08:10:49;;;;;;;;;;;;;;;;;;5124284;28;1293;-74
2023/03/26 08:13:22;;;;;;;;;;;;;;;;;;5121914;28;1284;-74
2023/03/26 08:15:52;;;;;;;;;;;;;;;;;;5124016;28;1890;-74
2023/03/26 08:18:17;;;;;;;;;;;;;;;;;;5125139;28;1003;-75
2023/03/26 08:20:50;;;;;;;;;;;;;;;;;;5125180;28;910;-75
2023/03/26 08:23:22;;;;;;;;;;;;;;;;;;5128623;28;1288;-74
2023/03/26 08:26:09;;;;;;;;;;;;;;;;;;5128100;28;824;-73
2023/03/26 08:28:37;;;;;;;;;;;;;;;;;;5116144;28;1181;-75
2023/03/26 08:31:04;;;;;;;;;;;;;;;;;;5116778;28;1320;-75
2023/03/26 08:33:29;;;;;;;;;;;;;;;;;;5098574;28;1214;-74
2023/03/26 08:35:55;;;;;;;;;;;;;;;;;;5098401;28;1951;-74
2023/03/26 08:38:20;;;;;;;;;;;;;;;;;;5115293;28;1264;-75
2023/03/26 08:41:01;;;;;;;;;;;;;;;;;;5116071;28;1160;-74
2023/03/26 08:43:41;;;;;;;;;;;;;;;;;;5114549;28;1217;-73
2023/03/26 08:46:06;;;;;;;;;;;;;;;;;;5114936;28;1283;-75
2023/03/26 08:48:41;;;;;;;;;;;;;;;;;;5115099;28;1328;-74
2023/03/26 08:51:12;;;;;;;;;;;;;;;;;;5114566;28;1341;-74
2023/03/26 08:53:44;;;;;;;;;;;;;;;;;;5114917;28;1466;-75
2023/03/26 08:56:12;;;;;;;;;;;;;;;;;;5114485;28;1887;-75
2023/03/26 08:58:50;;;;;;;;;;;;;;;;;;5114690;28;1221;-75
2023/03/26 09:01:34;;;;;;;;;;;;;;;;;;5116401;28;852;-75
2023/03/26 09:04:11;;;;;;;;;;;;;;;;;;5114172;28;1300;-75
2023/03/26 09:06:42;;;;;;;;;;;;;;;;;;5113876;28;1121;-75
2023/03/26 09:09:16;;;;;;;;;;;;;;;;;;5115937;28;891;-75
2023/03/26 09:12:02;;;;;;;;;;;;;;;;;;5114720;28;1165;-75
2023/03/26 09:14:59;;;;;;;;;;;;;;;;;;5115515;28;859;-75
2023/03/26 09:17:26;;;;;;;;;;;;;;;;;;5081613;28;1882;-74
2023/03/26 09:19:51;;;;;;;;;;;;;;;;;;5115153;28;1198;-74
2023/03/26 09:22:26;;;;;;;;;;;;;;;;;;5114595;28;1213;-74
2023/03/26 09:25:16;;;;;;;;;;;;;;;;;;5116423;28;887;-74
2023/03/26 09:28:00;;;;;;;;;;;;;;;;;;5115962;28;884;-74
2023/03/26 09:30:51;;;;;;;;;;;;;;;;;;5113573;28;1181;-74
2023/03/26 09:33:35;;;;;;;;;;;;;;;;;;5098623;28;1079;-74
2023/03/26 09:36:04;;;;;;;;;;;;;;;;;;5114155;28;1909;-76
2023/03/26 09:38:43;;;;;;;;;;;;;;;;;;5114890;28;824;-74
2023/03/26 09:41:27;;;;;;;;;;;;;;;;;;5114096;28;1153;-74
2023/03/26 09:44:14;;;;;;;;;;;;;;;;;;5113649;28;1255;-74
2023/03/26 09:46:42;;;;;;;;;;;;;;;;;;5113362;28;1175;-74
2023/03/26 09:49:26;;;;;;;;;;;;;;;;;;5113252;28;1158;-75
2023/03/26 09:51:57;;;;;;;;;;;;;;;;;;5114062;28;880;-75
2023/03/26 09:54:22;;;;;;;;;;;;;;;;;;5112472;28;1379;-74
2023/03/26 09:56:57;;;;;;;;;;;;;;;;;;5112862;28;1915;-75
2023/03/26 09:59:41;;;;;;;;;;;;;;;;;;5113395;28;926;-75
2023/03/26 10:02:24;;;;;;;;;;;;;;;;;;5112494;28;1248;-75
2023/03/26 10:05:09;;;;;;;;;;;;;;;;;;5113634;28;954;-75
2023/03/26 10:07:54;;;;;;;;;;;;;;;;;;5113503;28;880;-75
2023/03/26 10:10:19;;;;;;;;;;;;;;;;;;5112181;28;1170;-75
2023/03/26 10:12:49;;;;;;;;;;;;;;;;;;5112486;28;1162;-76
2023/03/26 10:15:21;;;;;;;;;;;;;;;;;;5113594;28;994;-75
2023/03/26 10:18:03;;;;;;;;;;;;;;;;;;5113655;27;1906;-75
2023/03/26 10:20:37;;;;;;;;;;;;;;;;;;5111882;28;1391;-75
2023/03/26 10:23:05;;;;;;;;;;;;;;;;;;5114316;28;903;-75
2023/03/26 10:25:38;;;;;;;;;;;;;;;;;;5111651;28;1305;-75
2023/03/26 10:28:22;;;;;;;;;;;;;;;;;;5113407;28;876;-75
2023/03/26 10:30:57;;;;;;;;;;;;;;;;;;5112903;28;927;-75
2023/03/26 10:33:52;;;;;;;;;;;;;;;;;;5111430;28;1251;-75
2023/03/26 10:36:33;;;;;;;;;;;;;;;;;;5098009;28;1893;-75
2023/03/26 10:39:23;;;;;;;;;;;;;;;;;;5113314;28;1142;-76
2023/03/26 10:41:48;;;;;;;;;;;;;;;;;;5111660;28;1173;-75
2023/03/26 10:44:16;;;;;;;;;;;;;;;;;;5113529;28;878;-75
2023/03/26 10:47:00;;;;;;;;;;;;;;;;;;5113444;28;884;-73
2023/03/26 10:49:32;;;;;;;;;;;;;;;;;;5111880;28;1110;-74
2023/03/26 10:51:58;;;;;;;;;;;;;;;;;;5111286;28;1221;-78
2023/03/26 10:54:42;;;;;;;;;;;;;;;;;;5112612;28;1328;-77
2023/03/26 10:57:17;;;;;;;;;;;;;;;;;;5112540;28;1964;-77
2023/03/26 10:59:43;;;;;;;;;;;;;;;;;;5112186;28;1261;-77
2023/03/26 11:02:27;;;;;;;;;;;;;;;;;;5112291;28;1431;-77
2023/03/26 11:04:56;;;;;;;;;;;;;;;;;;5112958;28;1336;-78
2023/03/26 11:07:21;;;;;;;;;;;;;;;;;;5112426;28;1122;-78
2023/03/26 11:09:52;;;;;;;;;;;;;;;;;;5112458;28;1165;-78
2023/03/26 11:12:22;;;;;;;;;;;;;;;;;;5112301;28;1217;-78
2023/03/26 11:15:05;;;;;;;;;;;;;;;;;;5112455;28;1225;-78
2023/03/26 11:17:36;;;;;;;;;;;;;;;;;;5112528;28;1910;-78
2023/03/26 11:20:02;;;;;;;;;;;;;;;;;;5112803;28;1158;-78
2023/03/26 11:22:43;;;;;;;;;;;;;;;;;;5112021;28;1261;-78
2023/03/26 11:25:22;;;;;;;;;;;;;;;;;;5112604;28;1273;-78
2023/03/26 11:27:47;;;;;;;;;;;;;;;;;;5111825;28;1153;-78
2023/03/26 11:30:15;;;;;;;;;;;;;;;;;;5112107;28;1328;-78
2023/03/26 11:32:46;;;;;;;;;;;;;;;;;;5112573;28;924;-75
2023/03/26 11:35:14;;;;;;;;;;;;;;;;;;5113171;28;930;-75
2023/03/26 11:37:39;;;;;;;;;;;;;;;;;;5111820;28;1897;-75
2023/03/26 11:40:10;;;;;;;;;;;;;;;;;;5111423;28;1221;-76
2023/03/26 11:42:37;;;;;;;;;;;;;;;;;;5111132;28;1305;-75
2023/03/26 11:45:05;;;;;;;;;;;;;;;;;;5093814;28;1308;-75
2023/03/26 11:48:00;;;;;;;;;;;;;;;;;;5111335;28;1288;-75
2023/03/26 11:50:27;;;;;;;;;;;;;;;;;;5097678;28;1167;-76
2023/03/26 11:52:56;;;;;;;;;;;;;;;;;;5111326;28;1281;-76
2023/03/26 11:55:23;;;;;;;;;;;;;;;;;;5111543;28;1375;-75
2023/03/26 11:57:53;;;;;;;;;;;;;;;;;;5110944;28;1886;-75
2023/03/26 12:00:21;;;;;;;;;;;;;;;;;;5110938;28;1293;-76
2023/03/26 12:02:47;;;;;;;;;;;;;;;;;;5113021;28;1407;-76
2023/03/26 12:05:15;;;;;;;;;;;;;;;;;;5115296;28;883;-75
2023/03/26 12:07:44;;;;;;;;;;;;;;;;;;5111056;28;1206;-75
2023/03/26 12:10:20;;;;;;;;;;;;;;;;;;5106467;28;1169;-76
2023/03/26 12:12:46;;;;;;;;;;;;;;;;;;5114369;28;1253;-73
2023/03/26 12:15:20;;;;;;;;;;;;;;;;;;5116049;28;1021;-74
2023/03/26 12:17:52;;;;;;;;;;;;;;;;;;5115312;28;1965;-73
2023/03/26 12:20:26;;;;;;;;;;;;;;;;;;5114448;28;1284;-73
2023/03/26 12:22:57;;;;;;;;;;;;;;;;;;5116076;28;911;-73
2023/03/26 12:25:24;;;;;;;;;;;;;;;;;;5116162;28;894;-73
2023/03/26 12:28:01;;;;;;;;;;;;;;;;;;5114596;28;1190;-73
2023/03/26 12:30:34;;;;;;;;;;;;;;;;;;5116251;28;868;-73
2023/03/26 12:33:02;;;;;;;;;;;;;;;;;;5115251;28;1344;-73
2023/03/26 12:35:29;;;;;;;;;;;;;;;;;;5114990;28;1185;-73
2023/03/26 12:38:14;;;;;;;;;;;;;;;;;;5114749;28;1910;-73
2023/03/26 12:40:41;;;;;;;;;;;;;;;;;;5115195;28;1079;-73
2023/03/26 12:43:20;;;;;;;;;;;;;;;;;;5098057;28;1194;-73
2023/03/26 12:45:48;;;;;;;;;;;;;;;;;;5114302;28;1287;-74
2023/03/26 12:48:16;;;;;;;;;;;;;;;;;;5116004;28;840;-73
2023/03/26 12:50:45;;;;;;;;;;;;;;;;;;5113944;28;1209;-72
2023/03/26 12:53:11;;;;;;;;;;;;;;;;;;5115558;28;902;-72
2023/03/26 12:55:46;;;;;;;;;;;;;;;;;;5113920;28;1173;-72
2023/03/26 12:58:21;;;;;;;;;;;;;;;;;;5114159;28;1898;-73
2023/03/26 13:00:53;;;;;;;;;;;;;;;;;;5114690;28;971;-73
2023/03/26 13:03:26;;;;;;;;;;;;;;;;;;5115164;28;765;-73
2023/03/26 13:05:52;;;;;;;;;;;;;;;;;;5114729;28;847;-73
2023/03/26 13:08:29;;;;;;;;;;;;;;;;;;5114848;27;852;-73
2023/03/26 13:11:04;;;;;;;;;;;;;;;;;;5113278;28;1359;-73
2023/03/26 13:13:35;;;;;;;;;;;;;;;;;;5112965;28;1191;-73
2023/03/26 13:16:03;;;;;;;;;;;;;;;;;;5113176;28;1968;-73
2023/03/26 13:18:42;;;;;;;;;;;;;;;;;;5114601;28;856;-73
2023/03/26 13:21:20;;;;;;;;;;;;;;;;;;5113259;28;1376;-73
2023/03/26 13:24:14;;;;;;;;;;;;;;;;;;5112860;28;1419;-73
2023/03/26 13:26:59;;;;;;;;;;;;;;;;;;5104095;28;1232;-73
2023/03/26 13:29:42;;;;;;;;;;;;;;;;;;5112879;28;1162;-73
2023/03/26 13:32:10;;;;;;;;;;;;;;;;;;5112975;28;1174;-73
2023/03/26 13:34:39;;;;;;;;;;;;;;;;;;5113084;28;1234;-73
2023/03/26 13:37:21;;;;;;;;;;;;;;;;;;5102628;28;1902;-74
2023/03/26 13:39:55;;;;;;;;;;;;;;;;;;5091989;28;1297;-74
2023/03/26 13:42:27;;;;;;;;;;;;;;;;;;5094274;28;922;-74
2023/03/26 13:45:19;;;;;;;;;;;;;;;;;;5092037;28;1209;-75
2023/03/26 13:47:47;;;;;;;;;;;;;;;;;;5091362;28;1369;-74
2023/03/26 13:50:47;;;;;;;;;;;;;;;;;;5092897;28;1281;-74
2023/03/26 13:53:17;;;;;;;;;;;;;;;;;;5050916;28;1303;-74
2023/03/26 13:55:44;;;;;;;;;;;;;;;;;;5085538;28;922;-74
2023/03/26 13:58:16;;;;;;;;;;;;;;;;;;5093365;28;1975;-74
2023/03/26 14:00:53;;;;;;;;;;;;;;;;;;5091912;28;1206;-74
2023/03/26 14:03:19;;;;;;;;;;;;;;;;;;5093902;28;891;-75
2023/03/26 14:05:47;;;;;;;;;;;;;;;;;;5094059;28;903;-75
2023/03/26 14:08:24;;;;;;;;;;;;;;;;;;5092677;28;1182;-75
2023/03/26 14:10:55;;;;;;;;;;;;;;;;;;5092521;28;1178;-75
2023/03/26 14:13:25;;;;;;;;;;;;;;;;;;5092660;28;1173;-75
2023/03/26 14:16:02;;;;;;;;;;;;;;;;;;5093919;28;884;-75
2023/03/26 14:18:43;;;;;;;;;;;;;;;;;;5093689;28;885;-75
2023/03/26 14:21:27;;;;;;;;;;;;;;;;;;5092274;28;1264;-75
2023/03/26 14:24:01;;;;;;;;;;;;;;;;;;5092539;28;1198;-75
2023/03/26 14:26:32;;;;;;;;;;;;;;;;;;5092202;28;1170;-75
2023/03/26 14:29:04;;;;;;;;;;;;;;;;;;5092124;28;1285;-74
2023/03/26 14:31:30;;;;;;;;;;;;;;;;;;5092458;28;1161;-76
2023/03/26 14:33:55;;;;;;;;;;;;;;;;;;5092208;28;1305;-71
2023/03/26 14:36:53;;;;;;;;;;;;;;;;;;5091684;28;1882;-74
2023/03/26 14:39:31;;;;;;;;;;;;;;;;;;5058062;28;1247;-73
2023/03/26 14:41:57;;;;;;;;;;;;;;;;;;5091442;28;1209;-75
2023/03/26 14:44:40;;;;;;;;;;;;;;;;;;5091349;28;1198;-74
2023/03/26 14:47:17;;;;;;;;;;;;;;;;;;5093413;28;931;-75
2023/03/26 14:49:42;;;;;;;;;;;;;;;;;;5092765;28;836;-74
2023/03/26 14:52:26;;;;;;;;;;;;;;;;;;5091746;28;1071;-74
2023/03/26 14:54:52;;;;;;;;;;;;;;;;;;5091321;28;1171;-75
2023/03/26 14:57:20;;;;;;;;;;;;;;;;;;5092389;28;1910;-75
2023/03/26 14:59:46;;;;;;;;;;;;;;;;;;5091008;28;1265;-74
2023/03/26 15:02:23;;;;;;;;;;;;;;;;;;5091631;28;1178;-72
2023/03/26 15:05:07;;;;;;;;;;;;;;;;;;5092642;28;848;-72
2023/03/26 15:07:46;;;;;;;;;;;;;;;;;;5091071;28;1181;-74
2023/03/26 15:10:38;;;;;;;;;;;;;;;;;;5091185;28;1300;-73
2023/03/26 15:13:09;;;;;;;;;;;;;;;;;;5090946;28;1170;-73
2023/03/26 15:15:35;;;;;;;;;;;;;;;;;;5092844;28;1063;-73
2023/03/26 15:18:18;;;;;;;;;;;;;;;;;;5091200;28;1977;-73
2023/03/26 15:20:50;;;;;;;;;;;;;;;;;;5092248;28;1038;-73
2023/03/26 15:23:36;;;;;;;;;;;;;;;;;;5092106;28;1262;-72
2023/03/26 15:26:20;;;;;;;;;;;;;;;;;;5072057;28;1180;-72
2023/03/26 15:29:05;;;;;;;;;;;;;;;;;;5099060;28;1345;-72
2023/03/26 15:31:48;;;;;;;;;;;;;;;;;;5100360;28;1139;-72
2023/03/26 15:34:18;;;;;;;;;;;;;;;;;;5072241;28;929;-72
2023/03/26 15:37:04;;;;;;;;;;;;;;;;;;5071314;28;1906;-71
2023/03/26 15:39:43;;;;;;;;;;;;;;;;;;5076605;28;1346;-77
2023/03/26 15:42:25;;;;;;;;;;;;;;;;;;5075149;28;1026;-75
2023/03/26 15:45:16;;;;;;;;;;;;;;;;;;5109278;28;1218;-75
2023/03/26 15:47:55;;;;;;;;;;;;;;;;;;5069012;28;1266;-84
2023/03/26 15:50:39;;;;;;;;;;;;;;;;;;5075573;28;1170;-79
2023/03/26 15:53:17;;;;;;;;;;;;;;;;;;5077338;28;832;-79
2023/03/26 15:55:51;;;;;;;;;;;;;;;;;;5109970;28;1155;-78
2023/03/26 15:58:26;;;;;;;;;;;;;;;;;;5075261;28;2320;-78
2023/03/26 16:00:55;;;;;;;;;;;;;;;;;;5077151;28;840;-79
2023/03/26 16:03:36;;;;;;;;;;;;;;;;;;5076627;28;883;-73
2023/03/26 16:06:08;;;;;;;;;;;;;;;;;;5074705;28;1415;-72
2023/03/26 16:08:56;;;;;;;;;;;;;;;;;;5075102;28;1330;-73
2023/03/26 16:11:40;;;;;;;;;;;;;;;;;;5074780;28;1162;-72
2023/03/26 16:14:32;;;;;;;;;;;;;;;;;;5074433;28;1105;-73
2023/03/26 16:16:58;;;;;;;;;;;;;;;;;;5059222;28;1902;-71
2023/03/26 16:19:42;;;;;;;;;;;;;;;;;;5074485;28;1186;-72
2023/03/26 16:22:13;;;;;;;;;;;;;;;;;;5074464;28;1207;-72
2023/03/26 16:24:39;;;;;;;;;;;;;;;;;;5074754;28;1186;-72
2023/03/26 16:27:24;;;;;;;;;;;;;;;;;;5108055;28;1139;-72
2023/03/26 16:29:59;;;;;;;;;;;;;;;;;;5075058;28;945;-72
2023/03/26 16:32:31;;;;;;;;;;;;;;;;;;5075383;28;998;-72
2023/03/26 16:34:59;;;;;;;;;;;;;;;;;;5075052;28;1013;-72
2023/03/26 16:37:34;;;;;;;;;;;;;;;;;;5073680;28;1902;-72
2023/03/26 16:40:15;;;;;;;;;;;;;;;;;;5073209;28;1471;-72
2023/03/26 16:42:52;;;;;;;;;;;;;;;;;;5074110;28;1316;-72
2023/03/26 16:45:28;;;;;;;;;;;;;;;;;;5076272;28;1198;-72
2023/03/26 16:48:12;;;;;;;;;;;;;;;;;;5074236;28;1305;-71
2023/03/26 16:50:45;;;;;;;;;;;;;;;;;;5073753;28;1183;-72
2023/03/26 16:53:22;;;;;;;;;;;;;;;;;;5075806;28;864;-72
2023/03/26 16:55:51;;;;;;;;;;;;;;;;;;5114282;28;1209;-71
2023/03/26 16:58:26;;;;;;;;;;;;;;;;;;5083239;28;1891;-72
2023/03/26 17:01:15;;;;;;;;;;;;;;;;;;5082289;28;1318;-71
2023/03/26 17:03:50;;;;;;;;;;;;;;;;;;5089592;28;1277;-78
2023/03/26 17:06:24;;;;;;;;;;;;;;;;;;5093200;28;1209;-78
2023/03/26 17:09:05;;;;;;;;;;;;;;;;;;5096874;28;960;-78
2023/03/26 17:11:38;;;;;;;;;;;;;;;;;;5098726;28;975;-78
2023/03/26 17:14:19;;;;;;;;;;;;;;;;;;5094223;28;1280;-77
2023/03/26 17:16:45;;;;;;;;;;;;;;;;;;5097472;28;1879;-77
2023/03/26 17:19:10;;;;;;;;;;;;;;;;;;5097581;28;935;-77
2023/03/26 17:21:54;;;;;;;;;;;;;;;;;;5088415;28;1159;-72
2023/03/26 17:24:42;;;;;;;;;;;;;;;;;;5076118;28;1246;-73
2023/03/26 17:27:11;;;;;;;;;;;;;;;;;;5091543;28;1467;-73
2023/03/26 17:29:50;;;;;;;;;;;;;;;;;;5083084;28;1265;-73
2023/03/26 17:32:16;;;;;;;;;;;;;;;;;;5080827;28;1301;-73
2023/03/26 17:34:51;;;;;;;;;;;;;;;;;;5114498;28;1185;-74
2023/03/26 17:37:17;;;;;;;;;;;;;;;;;;5083872;28;1906;-72